createdAt,value
2023-03-22T00:00:29.647Z,9.15
2023-03-22T00:03:18.135Z,9.20
2023-03-22T00:05:46.105Z,9.30
2023-03-22T00:08:14.545Z,8.87
2023-03-22T00:10:42.822Z,9.32
2023-03-22T00:13:12.217Z,11.75
2023-03-22T00:15:40.033Z,10.43
2023-03-22T00:18:08.661Z,8.65
2023-03-22T00:20:38.682Z,9.87
2023-03-22T00:23:07.184Z,8.60
2023-03-22T00:25:34.852Z,9.32
2023-03-22T00:28:03.019Z,8.90
2023-03-22T00:30:30.710Z,8.98
2023-03-22T00:32:58.884Z,8.03
2023-03-22T00:35:26.723Z,9.02
2023-03-22T00:37:56.039Z,7.68
2023-03-22T00:40:24.341Z,8.90
2023-03-22T00:42:52.572Z,8.43
2023-03-22T00:45:20.276Z,10.53
2023-03-22T00:47:48.692Z,10.48
2023-03-22T00:50:16.598Z,12.23
2023-03-22T00:52:44.888Z,14.43
2023-03-22T00:55:12.847Z,13.55
2023-03-22T00:57:41.268Z,15.90
2023-03-22T01:00:16.606Z,16.77
2023-03-22T01:02:46.292Z,14.30
2023-03-22T01:05:22.711Z,15.63
2023-03-22T01:07:55.370Z,14.07
2023-03-22T01:10:23.463Z,11.13
2023-03-22T01:12:52.022Z,12.95
2023-03-22T01:15:19.957Z,12.80
2023-03-22T01:17:48.132Z,11.85
2023-03-22T01:20:15.954Z,11.65
2023-03-22T01:22:44.024Z,9.47
2023-03-22T01:25:11.992Z,9.23
2023-03-22T01:27:40.096Z,9.32
2023-03-22T01:30:09.099Z,9.88
2023-03-22T01:32:37.822Z,10.30
2023-03-22T01:35:07.212Z,10.07
2023-03-22T01:37:36.035Z,9.75
2023-03-22T01:40:05.105Z,9.45
2023-03-22T01:42:35.218Z,10.38
2023-03-22T01:45:14.903Z,12.35
2023-03-22T01:47:59.719Z,13.73
2023-03-22T01:50:28.749Z,13.65
2023-03-22T01:52:57.930Z,14.60
2023-03-22T01:55:34.475Z,12.07
2023-03-22T01:58:16.369Z,10.32
2023-03-22T02:00:51.836Z,10.13
2023-03-22T02:03:53.026Z,10.48
2023-03-22T02:06:22.418Z,9.55
2023-03-22T02:08:58.889Z,10.70
2023-03-22T02:11:35.901Z,9.45
2023-03-22T02:14:49.140Z,9.57
2023-03-22T02:17:53.814Z,10.65
2023-03-22T02:20:47.414Z,8.73
2023-03-22T02:23:55.251Z,9.55
2023-03-22T02:26:47.354Z,10.15
2023-03-22T02:29:26.700Z,11.17
2023-03-22T02:32:27.236Z,11.15
2023-03-22T02:35:19.408Z,10.85
2023-03-22T02:38:15.605Z,11.80
2023-03-22T02:41:25.052Z,12.73
2023-03-22T02:44:09.150Z,12.87
2023-03-22T02:47:08.164Z,12.73
2023-03-22T02:49:54.845Z,13.50
2023-03-22T02:52:40.793Z,12.32
2023-03-22T02:55:26.175Z,12.40
2023-03-22T02:58:56.821Z,12.93
2023-03-22T03:01:31.804Z,12.82
2023-03-22T03:04:05.145Z,14.35
2023-03-22T03:06:40.198Z,14.00
2023-03-22T03:09:09.198Z,13.43
2023-03-22T03:11:37.252Z,14.43
2023-03-22T03:14:06.073Z,15.07
2023-03-22T03:16:35.339Z,14.27
2023-03-22T03:19:15.885Z,15.43
2023-03-22T03:22:19.266Z,12.38
2023-03-22T03:25:07.197Z,13.90
2023-03-22T03:27:44.598Z,15.68
2023-03-22T03:30:16.968Z,18.92
2023-03-22T03:33:09.816Z,14.85
2023-03-22T03:36:01.720Z,40.17
2023-03-22T03:38:37.409Z,24.23
2023-03-22T03:41:09.639Z,28.52
2023-03-22T03:43:39.080Z,18.50
2023-03-22T03:46:10.942Z,13.25
2023-03-22T03:48:41.798Z,16.88
2023-03-22T03:51:11.648Z,13.20
2023-03-22T03:53:39.715Z,13.13
2023-03-22T03:56:08.640Z,13.82
2023-03-22T03:58:41.420Z,14.85
2023-03-22T04:01:09.373Z,14.63
2023-03-22T04:03:40.353Z,13.43
2023-03-22T04:06:35.035Z,13.77
2023-03-22T04:09:13.299Z,15.38
2023-03-22T04:11:45.279Z,14.35
2023-03-22T04:14:14.930Z,13.88
2023-03-22T04:16:42.652Z,12.97
2023-03-22T04:19:15.215Z,14.95
2023-03-22T04:21:43.574Z,15.40
2023-03-22T04:24:12.777Z,13.68
2023-03-22T04:26:44.281Z,18.95
2023-03-22T04:29:26.593Z,16.43
2023-03-22T04:32:00.192Z,15.18
2023-03-22T04:34:38.025Z,13.18
2023-03-22T04:37:11.719Z,14.55
2023-03-22T04:40:06.331Z,13.07
2023-03-22T04:42:46.117Z,12.40
2023-03-22T04:45:22.325Z,11.23
2023-03-22T04:47:56.811Z,13.45
2023-03-22T04:50:25.098Z,12.77
2023-03-22T04:52:58.845Z,11.40
2023-03-22T04:55:28.027Z,12.40
2023-03-22T04:57:56.354Z,12.00
2023-03-22T05:00:25.837Z,12.45
2023-03-22T05:02:56.299Z,11.60
2023-03-22T05:05:33.311Z,13.10
2023-03-22T05:08:03.373Z,12.67
2023-03-22T05:10:32.026Z,13.52
2023-03-22T05:12:59.830Z,12.65
2023-03-22T05:15:33.115Z,17.58
2023-03-22T05:18:03.584Z,33.95
2023-03-22T05:20:31.851Z,37.07
2023-03-22T05:23:10.785Z,14.27
2023-03-22T05:25:40.810Z,16.42
2023-03-22T05:28:09.011Z,17.95
2023-03-22T05:30:44.652Z,16.92
2023-03-22T05:33:23.982Z,13.33
2023-03-22T05:35:56.531Z,12.55
2023-03-22T05:38:26.066Z,14.10
2023-03-22T05:40:58.122Z,12.77
2023-03-22T05:43:26.782Z,14.20
2023-03-22T05:45:55.284Z,15.13
2023-03-22T05:48:49.284Z,15.43
2023-03-22T05:51:20.188Z,18.02
2023-03-22T05:53:54.988Z,15.02
2023-03-22T05:56:27.482Z,16.50
2023-03-22T05:59:05.049Z,16.00
2023-03-22T06:01:33.950Z,15.18
2023-03-22T06:04:24.278Z,15.48
2023-03-22T06:06:57.749Z,22.17
2023-03-22T06:09:43.381Z,14.35
2023-03-22T06:12:17.964Z,14.53
2023-03-22T06:15:12.003Z,14.50
2023-03-22T06:17:55.710Z,15.30
2023-03-22T06:20:34.595Z,15.10
2023-03-22T06:23:09.290Z,16.42
2023-03-22T06:25:39.609Z,14.47
2023-03-22T06:28:08.863Z,13.75
2023-03-22T06:30:39.433Z,13.30
2023-03-22T06:33:30.667Z,11.40
2023-03-22T06:40:36.105Z,11.63
2023-03-22T06:43:07.009Z,10.80
2023-03-22T06:45:37.232Z,11.00
2023-03-22T06:48:06.763Z,11.18
2023-03-22T06:50:46.986Z,10.43
2023-03-22T06:53:28.516Z,12.40
2023-03-22T06:55:57.960Z,13.68
2023-03-22T06:58:27.529Z,16.00
2023-03-22T07:00:58.663Z,15.18
2023-03-22T07:03:28.646Z,13.23
2023-03-22T07:06:08.425Z,11.30
2023-03-22T07:08:40.121Z,11.40
2023-03-22T07:11:11.414Z,10.45
2023-03-22T07:13:39.622Z,10.05
2023-03-22T07:16:12.809Z,9.73
2023-03-22T07:18:51.244Z,8.77
2023-03-22T07:21:19.452Z,9.60
2023-03-22T07:23:53.942Z,9.40
2023-03-22T07:26:26.882Z,9.35
2023-03-22T07:28:58.615Z,8.93
2023-03-22T07:31:38.568Z,8.40
2023-03-22T07:34:12.540Z,7.80
2023-03-22T07:36:58.508Z,8.73
2023-03-22T07:39:29.367Z,8.60
2023-03-22T07:41:58.579Z,8.43
2023-03-22T07:44:27.082Z,8.53
2023-03-22T07:47:39.990Z,7.65
2023-03-22T07:50:27.538Z,6.72
2023-03-22T07:52:57.724Z,7.32
2023-03-22T07:55:26.734Z,7.15
2023-03-22T07:57:54.584Z,5.57
2023-03-22T08:00:23.728Z,6.75
2023-03-22T08:03:02.729Z,7.03
2023-03-22T08:06:04.742Z,5.90
2023-03-22T08:08:32.710Z,6.97
2023-03-22T08:11:00.793Z,6.73
2023-03-22T08:13:28.935Z,7.72
2023-03-22T08:15:57.496Z,7.82
2023-03-22T08:18:26.173Z,7.15
2023-03-22T08:20:56.926Z,9.07
2023-03-22T08:23:40.461Z,7.63
2023-03-22T08:26:28.349Z,8.00
2023-03-22T08:29:00.133Z,9.40
2023-03-22T08:31:32.094Z,8.73
2023-03-22T08:34:00.196Z,8.95
2023-03-22T08:36:29.467Z,8.83
2023-03-22T08:39:01.985Z,8.70
2023-03-22T08:41:43.551Z,8.75
2023-03-22T08:44:11.736Z,8.93
2023-03-22T08:46:40.127Z,9.38
2023-03-22T08:49:10.754Z,8.60
2023-03-22T08:51:53.051Z,8.73
2023-03-22T08:54:44.270Z,7.20
2023-03-22T08:57:31.975Z,8.57
2023-03-22T09:00:27.542Z,8.70
2023-03-22T09:03:13.603Z,9.70
2023-03-22T09:05:42.511Z,8.80
2023-03-22T09:08:18.534Z,8.88
2023-03-22T09:10:52.284Z,8.55
2023-03-22T09:13:23.238Z,8.20
2023-03-22T09:15:57.094Z,7.40
2023-03-22T09:18:28.782Z,8.18
2023-03-22T09:21:00.802Z,7.10
2023-03-22T09:23:38.575Z,6.75
2023-03-22T09:26:09.276Z,6.03
2023-03-22T09:28:38.617Z,5.60
2023-03-22T09:31:10.958Z,5.40
2023-03-22T09:33:42.054Z,5.10
2023-03-22T09:36:12.312Z,5.57
2023-03-22T09:38:42.445Z,4.82
2023-03-22T09:41:18.818Z,5.07
2023-03-22T09:43:59.698Z,5.90
2023-03-22T09:50:42.780Z,5.38
2023-03-22T09:53:16.153Z,6.05
2023-03-22T09:56:18.288Z,5.00
2023-03-22T09:59:14.189Z,5.03
2023-03-22T10:02:33.339Z,5.03
2023-03-22T10:05:27.081Z,4.53
2023-03-22T10:08:37.243Z,7.30
2023-03-22T10:11:16.424Z,4.90
2023-03-22T10:14:07.174Z,4.57
2023-03-22T10:16:36.563Z,5.38
2023-03-22T10:19:22.941Z,4.68
2023-03-22T10:21:54.971Z,4.50
2023-03-22T10:24:35.128Z,4.70
2023-03-22T10:27:04.496Z,4.55
2023-03-22T10:29:40.260Z,5.10
2023-03-22T10:32:17.612Z,4.45
2023-03-22T10:34:47.797Z,5.18
2023-03-22T10:37:21.112Z,4.70
2023-03-22T10:39:56.384Z,5.85
2023-03-22T10:42:30.991Z,4.47
2023-03-22T10:45:04.378Z,12.20
2023-03-22T10:47:41.197Z,5.03
2023-03-22T10:50:21.076Z,4.20
2023-03-22T10:52:59.624Z,4.88
2023-03-22T10:55:27.746Z,4.75
2023-03-22T10:58:21.588Z,4.63
2023-03-22T11:00:52.448Z,4.50
2023-03-22T11:03:31.225Z,4.30
2023-03-22T11:06:12.154Z,4.35
2023-03-22T11:08:55.564Z,4.13
2023-03-22T11:11:33.110Z,4.25
2023-03-22T11:14:09.732Z,3.60
2023-03-22T11:17:01.936Z,4.30
2023-03-22T11:19:33.686Z,3.85
2023-03-22T11:22:05.083Z,4.25
2023-03-22T11:24:34.755Z,3.97
2023-03-22T11:27:07.567Z,3.90
2023-03-22T11:29:47.906Z,3.00
2023-03-22T11:32:26.342Z,3.17
2023-03-22T11:35:28.199Z,3.33
2023-03-22T11:37:56.627Z,3.10
2023-03-22T11:40:31.941Z,3.10
2023-03-22T11:43:20.432Z,2.87
2023-03-22T11:45:52.205Z,2.95
2023-03-22T11:48:24.244Z,2.85
2023-03-22T11:50:55.626Z,2.70
2023-03-22T11:53:27.998Z,3.45
2023-03-22T11:55:58.565Z,2.77
2023-03-22T11:58:44.399Z,2.70
2023-03-22T12:01:33.768Z,3.33
2023-03-22T12:04:06.765Z,2.90
2023-03-22T12:06:40.011Z,2.60
2023-03-22T12:09:27.472Z,2.70
2023-03-22T12:12:01.902Z,3.08
2023-03-22T12:15:08.712Z,3.10
2023-03-22T12:17:55.199Z,3.45
2023-03-22T12:20:48.505Z,3.08
2023-03-22T12:23:23.101Z,3.20
2023-03-22T12:25:59.203Z,3.53
2023-03-22T12:28:38.764Z,4.03
2023-03-22T12:31:11.493Z,3.25
2023-03-22T12:33:56.516Z,4.43
2023-03-22T12:36:48.110Z,4.10
2023-03-22T12:39:55.373Z,3.58
2023-03-22T12:42:47.547Z,3.85
2023-03-22T12:45:32.744Z,3.90
2023-03-22T12:48:24.029Z,4.35
2023-03-22T12:51:04.933Z,4.47
2023-03-22T12:53:46.208Z,4.80
2023-03-22T12:56:21.999Z,5.55
2023-03-22T12:58:53.470Z,4.07
2023-03-22T13:01:43.937Z,3.85
2023-03-22T13:04:32.229Z,4.57
2023-03-22T13:07:17.774Z,4.13
2023-03-22T13:09:50.731Z,4.30
2023-03-22T13:12:29.135Z,4.70
2023-03-22T13:15:04.686Z,4.10
2023-03-22T13:17:39.241Z,4.00
2023-03-22T13:20:07.731Z,3.70
2023-03-22T13:22:38.979Z,4.22
2023-03-22T13:25:19.764Z,5.63
2023-03-22T13:28:03.949Z,42.75
2023-03-22T13:30:50.517Z,53.73
2023-03-22T13:33:21.190Z,42.50
2023-03-22T13:35:51.726Z,44.47
2023-03-22T13:38:42.629Z,37.85
2023-03-22T13:41:29.206Z,9.88
2023-03-22T13:44:00.320Z,23.67
2023-03-22T13:46:37.379Z,25.08
2023-03-22T13:49:25.201Z,23.75
2023-03-22T13:51:53.796Z,19.67
2023-03-22T13:54:24.984Z,11.32
2023-03-22T13:57:01.881Z,7.23
2023-03-22T13:59:34.215Z,6.38
2023-03-22T14:02:23.114Z,5.50
2023-03-22T14:04:59.337Z,10.63
2023-03-22T14:07:41.217Z,5.03
2023-03-22T14:10:30.856Z,5.27
2023-03-22T14:13:06.719Z,4.88
2023-03-22T14:15:57.590Z,5.05
2023-03-22T14:18:33.798Z,4.40
2023-03-22T14:21:09.843Z,4.82
